sensor_id;sensor_type;location;lat;lon;timestamp;P1;durP1;ratioP1;P2;durP2;ratioP2
5555;SDS011;2801;50.972;7.856;2023-11-19T00:00:18;5.15;;;1.80;;
5555;SDS011;2801;50.972;7.856;2023-11-19T00:02:45;7.03;;;1.97;;
5555;SDS011;2801;50.972;7.856;2023-11-19T00:05:14;3.43;;;1.70;;
5555;SDS011;2801;50.972;7.856;2023-11-19T00:07:41;3.03;;;1.50;;
5555;SDS011;2801;50.972;7.856;2023-11-19T00:10:09;4.47;;;1.60;;
5555;SDS011;2801;50.972;7.856;2023-11-19T00:12:38;6.57;;;1.80;;
5555;SDS011;2801;50.972;7.856;2023-11-19T00:15:08;3.70;;;1.83;;
5555;SDS011;2801;50.972;7.856;2023-11-19T00:17:40;4.70;;;1.60;;
5555;SDS011;2801;50.972;7.856;2023-11-19T00:20:12;4.30;;;1.40;;
5555;SDS011;2801;50.972;7.856;2023-11-19T00:22:45;2.63;;;1.50;;
5555;SDS011;2801;50.972;7.856;2023-11-19T00:25:18;3.83;;;1.53;;
5555;SDS011;2801;50.972;7.856;2023-11-19T00:27:48;3.30;;;1.50;;
5555;SDS011;2801;50.972;7.856;2023-11-19T00:30:17;4.03;;;1.80;;
5555;SDS011;2801;50.972;7.856;2023-11-19T00:32:45;2.88;;;1.50;;
5555;SDS011;2801;50.972;7.856;2023-11-19T00:35:12;3.13;;;1.70;;
5555;SDS011;2801;50.972;7.856;2023-11-19T00:37:41;4.20;;;1.80;;
5555;SDS011;2801;50.972;7.856;2023-11-19T00:40:16;2.63;;;1.50;;
5555;SDS011;2801;50.972;7.856;2023-11-19T00:42:45;3.40;;;1.63;;
5555;SDS011;2801;50.972;7.856;2023-11-19T00:45:12;4.33;;;1.67;;
5555;SDS011;2801;50.972;7.856;2023-11-19T00:47:39;3.70;;;1.80;;
5555;SDS011;2801;50.972;7.856;2023-11-19T00:50:08;4.57;;;2.00;;
5555;SDS011;2801;50.972;7.856;2023-11-19T00:52:37;4.80;;;1.85;;
5555;SDS011;2801;50.972;7.856;2023-11-19T00:55:06;7.03;;;2.25;;
5555;SDS011;2801;50.972;7.856;2023-11-19T00:57:34;5.33;;;2.37;;
5555;SDS011;2801;50.972;7.856;2023-11-19T01:00:02;4.23;;;1.90;;
5555;SDS011;2801;50.972;7.856;2023-11-19T01:02:40;6.00;;;2.40;;
5555;SDS011;2801;50.972;7.856;2023-11-19T01:05:08;4.30;;;2.30;;
5555;SDS011;2801;50.972;7.856;2023-11-19T01:07:35;7.00;;;2.67;;
5555;SDS011;2801;50.972;7.856;2023-11-19T01:10:04;5.47;;;2.22;;
5555;SDS011;2801;50.972;7.856;2023-11-19T01:12:33;6.32;;;2.47;;
5555;SDS011;2801;50.972;7.856;2023-11-19T01:15:00;5.67;;;2.30;;
5555;SDS011;2801;50.972;7.856;2023-11-19T01:17:27;7.00;;;2.63;;
5555;SDS011;2801;50.972;7.856;2023-11-19T01:19:57;7.97;;;2.45;;
5555;SDS011;2801;50.972;7.856;2023-11-19T01:22:24;5.75;;;2.45;;
5555;SDS011;2801;50.972;7.856;2023-11-19T01:24:53;6.00;;;2.50;;
5555;SDS011;2801;50.972;7.856;2023-11-19T01:27:22;15.30;;;2.90;;
5555;SDS011;2801;50.972;7.856;2023-11-19T01:29:52;5.22;;;2.35;;
5555;SDS011;2801;50.972;7.856;2023-11-19T01:32:21;6.97;;;2.60;;
5555;SDS011;2801;50.972;7.856;2023-11-19T01:34:50;5.55;;;2.53;;
5555;SDS011;2801;50.972;7.856;2023-11-19T01:37:18;3.83;;;2.33;;
5555;SDS011;2801;50.972;7.856;2023-11-19T01:39:46;7.15;;;2.72;;
5555;SDS011;2801;50.972;7.856;2023-11-19T01:42:24;8.63;;;2.53;;
5555;SDS011;2801;50.972;7.856;2023-11-19T01:45:00;5.70;;;2.92;;
5555;SDS011;2801;50.972;7.856;2023-11-19T01:47:28;6.35;;;2.65;;
5555;SDS011;2801;50.972;7.856;2023-11-19T01:49:57;5.25;;;2.65;;
5555;SDS011;2801;50.972;7.856;2023-11-19T01:52:25;8.40;;;2.85;;
5555;SDS011;2801;50.972;7.856;2023-11-19T01:54:53;6.28;;;2.60;;
5555;SDS011;2801;50.972;7.856;2023-11-19T01:57:23;5.50;;;2.50;;
5555;SDS011;2801;50.972;7.856;2023-11-19T01:59:52;6.03;;;2.45;;
5555;SDS011;2801;50.972;7.856;2023-11-19T02:02:20;5.40;;;2.60;;
5555;SDS011;2801;50.972;7.856;2023-11-19T02:04:49;3.60;;;1.60;;
5555;SDS011;2801;50.972;7.856;2023-11-19T02:07:19;4.60;;;2.10;;
5555;SDS011;2801;50.972;7.856;2023-11-19T02:09:47;4.20;;;1.97;;
5555;SDS011;2801;50.972;7.856;2023-11-19T02:12:14;3.78;;;1.83;;
5555;SDS011;2801;50.972;7.856;2023-11-19T02:14:41;3.60;;;1.75;;
5555;SDS011;2801;50.972;7.856;2023-11-19T02:17:24;5.07;;;1.65;;
5555;SDS011;2801;50.972;7.856;2023-11-19T02:20:04;3.90;;;1.33;;
5555;SDS011;2801;50.972;7.856;2023-11-19T02:22:41;3.10;;;1.00;;
5555;SDS011;2801;50.972;7.856;2023-11-19T02:25:09;2.28;;;1.02;;
5555;SDS011;2801;50.972;7.856;2023-11-19T02:30:28;1.92;;;0.90;;
5555;SDS011;2801;50.972;7.856;2023-11-19T02:32:55;2.42;;;0.93;;
5555;SDS011;2801;50.972;7.856;2023-11-19T02:35:25;2.15;;;1.00;;
5555;SDS011;2801;50.972;7.856;2023-11-19T02:37:58;2.42;;;1.00;;
5555;SDS011;2801;50.972;7.856;2023-11-19T02:40:27;2.28;;;1.15;;
5555;SDS011;2801;50.972;7.856;2023-11-19T02:42:54;3.13;;;1.40;;
5555;SDS011;2801;50.972;7.856;2023-11-19T02:45:22;1.92;;;0.95;;
5555;SDS011;2801;50.972;7.856;2023-11-19T02:47:51;2.65;;;1.20;;
5555;SDS011;2801;50.972;7.856;2023-11-19T02:50:19;3.50;;;1.50;;
5555;SDS011;2801;50.972;7.856;2023-11-19T02:52:53;2.15;;;1.17;;
5555;SDS011;2801;50.972;7.856;2023-11-19T02:55:24;4.63;;;1.38;;
5555;SDS011;2801;50.972;7.856;2023-11-19T02:57:54;3.28;;;1.27;;
5555;SDS011;2801;50.972;7.856;2023-11-19T03:00:23;2.13;;;1.25;;
5555;SDS011;2801;50.972;7.856;2023-11-19T03:02:51;3.17;;;1.40;;
5555;SDS011;2801;50.972;7.856;2023-11-19T03:05:26;6.38;;;1.70;;
5555;SDS011;2801;50.972;7.856;2023-11-19T03:07:57;4.68;;;1.80;;
5555;SDS011;2801;50.972;7.856;2023-11-19T03:10:24;4.28;;;1.58;;
5555;SDS011;2801;50.972;7.856;2023-11-19T03:12:51;5.47;;;1.95;;
5555;SDS011;2801;50.972;7.856;2023-11-19T03:15:18;8.38;;;2.03;;
5555;SDS011;2801;50.972;7.856;2023-11-19T03:17:45;3.88;;;1.40;;
5555;SDS011;2801;50.972;7.856;2023-11-19T03:20:15;3.50;;;1.83;;
5555;SDS011;2801;50.972;7.856;2023-11-19T03:22:43;5.40;;;1.80;;
5555;SDS011;2801;50.972;7.856;2023-11-19T03:25:10;7.68;;;2.20;;
5555;SDS011;2801;50.972;7.856;2023-11-19T03:27:39;5.78;;;2.13;;
5555;SDS011;2801;50.972;7.856;2023-11-19T03:30:08;8.10;;;2.22;;
5555;SDS011;2801;50.972;7.856;2023-11-19T03:32:36;5.13;;;2.28;;
5555;SDS011;2801;50.972;7.856;2023-11-19T03:35:05;9.40;;;2.60;;
5555;SDS011;2801;50.972;7.856;2023-11-19T03:37:33;10.73;;;2.10;;
5555;SDS011;2801;50.972;7.856;2023-11-19T03:40:02;5.72;;;1.90;;
5555;SDS011;2801;50.972;7.856;2023-11-19T03:42:31;4.40;;;1.65;;
5555;SDS011;2801;50.972;7.856;2023-11-19T03:45:02;6.70;;;2.17;;
5555;SDS011;2801;50.972;7.856;2023-11-19T03:47:30;5.32;;;2.40;;
5555;SDS011;2801;50.972;7.856;2023-11-19T03:49:57;5.70;;;1.95;;
5555;SDS011;2801;50.972;7.856;2023-11-19T03:52:24;6.93;;;2.30;;
5555;SDS011;2801;50.972;7.856;2023-11-19T03:54:55;5.88;;;2.30;;
5555;SDS011;2801;50.972;7.856;2023-11-19T03:57:27;6.22;;;2.00;;
5555;SDS011;2801;50.972;7.856;2023-11-19T03:59:54;5.88;;;2.10;;
5555;SDS011;2801;50.972;7.856;2023-11-19T04:02:21;14.05;;;2.70;;
5555;SDS011;2801;50.972;7.856;2023-11-19T04:04:49;7.63;;;2.30;;
5555;SDS011;2801;50.972;7.856;2023-11-19T04:07:16;7.97;;;2.10;;
5555;SDS011;2801;50.972;7.856;2023-11-19T04:09:43;8.63;;;2.33;;
5555;SDS011;2801;50.972;7.856;2023-11-19T04:12:13;9.52;;;2.10;;
5555;SDS011;2801;50.972;7.856;2023-11-19T04:14:41;8.25;;;2.20;;
5555;SDS011;2801;50.972;7.856;2023-11-19T04:17:08;5.10;;;1.90;;
5555;SDS011;2801;50.972;7.856;2023-11-19T04:19:35;6.53;;;1.88;;
5555;SDS011;2801;50.972;7.856;2023-11-19T04:22:02;9.90;;;1.98;;
5555;SDS011;2801;50.972;7.856;2023-11-19T04:24:29;5.90;;;1.95;;
5555;SDS011;2801;50.972;7.856;2023-11-19T04:26:55;4.85;;;1.73;;
5555;SDS011;2801;50.972;7.856;2023-11-19T04:29:22;6.38;;;2.30;;
5555;SDS011;2801;50.972;7.856;2023-11-19T04:31:49;9.65;;;2.20;;
5555;SDS011;2801;50.972;7.856;2023-11-19T04:34:16;6.32;;;2.25;;
5555;SDS011;2801;50.972;7.856;2023-11-19T04:36:45;4.28;;;2.00;;
5555;SDS011;2801;50.972;7.856;2023-11-19T04:39:13;6.28;;;2.25;;
5555;SDS011;2801;50.972;7.856;2023-11-19T04:41:48;7.70;;;2.08;;
5555;SDS011;2801;50.972;7.856;2023-11-19T04:44:16;6.53;;;1.60;;
5555;SDS011;2801;50.972;7.856;2023-11-19T04:46:44;7.00;;;1.95;;
5555;SDS011;2801;50.972;7.856;2023-11-19T04:49:12;10.02;;;1.80;;
5555;SDS011;2801;50.972;7.856;2023-11-19T04:51:41;8.02;;;1.90;;
5555;SDS011;2801;50.972;7.856;2023-11-19T04:54:10;7.88;;;1.80;;
5555;SDS011;2801;50.972;7.856;2023-11-19T04:56:39;7.10;;;1.92;;
5555;SDS011;2801;50.972;7.856;2023-11-19T04:59:07;7.88;;;1.70;;
5555;SDS011;2801;50.972;7.856;2023-11-19T05:01:35;8.52;;;2.17;;
5555;SDS011;2801;50.972;7.856;2023-11-19T05:04:02;11.13;;;2.53;;
5555;SDS011;2801;50.972;7.856;2023-11-19T05:06:30;10.20;;;2.40;;
5555;SDS011;2801;50.972;7.856;2023-11-19T05:08:58;16.27;;;2.50;;
5555;SDS011;2801;50.972;7.856;2023-11-19T05:11:35;12.27;;;2.00;;
5555;SDS011;2801;50.972;7.856;2023-11-19T05:14:17;11.90;;;2.03;;
5555;SDS011;2801;50.972;7.856;2023-11-19T05:16:46;7.55;;;2.25;;
5555;SDS011;2801;50.972;7.856;2023-11-19T05:19:17;9.35;;;1.75;;
5555;SDS011;2801;50.972;7.856;2023-11-19T05:21:44;13.85;;;2.13;;
5555;SDS011;2801;50.972;7.856;2023-11-19T05:24:11;9.82;;;1.77;;
5555;SDS011;2801;50.972;7.856;2023-11-19T05:26:39;11.75;;;2.20;;
5555;SDS011;2801;50.972;7.856;2023-11-19T05:29:08;11.68;;;1.95;;
5555;SDS011;2801;50.972;7.856;2023-11-19T05:31:35;9.77;;;2.03;;
5555;SDS011;2801;50.972;7.856;2023-11-19T05:34:03;12.85;;;2.20;;
5555;SDS011;2801;50.972;7.856;2023-11-19T05:36:33;11.73;;;2.38;;
5555;SDS011;2801;50.972;7.856;2023-11-19T05:39:01;14.50;;;2.40;;
5555;SDS011;2801;50.972;7.856;2023-11-19T05:41:31;13.32;;;2.63;;
5555;SDS011;2801;50.972;7.856;2023-11-19T05:43:58;14.40;;;2.60;;
5555;SDS011;2801;50.972;7.856;2023-11-19T05:46:27;14.75;;;2.65;;
5555;SDS011;2801;50.972;7.856;2023-11-19T05:48:54;12.85;;;2.72;;
5555;SDS011;2801;50.972;7.856;2023-11-19T05:51:22;14.80;;;2.42;;
5555;SDS011;2801;50.972;7.856;2023-11-19T05:53:50;12.50;;;2.40;;
5555;SDS011;2801;50.972;7.856;2023-11-19T05:56:19;12.27;;;2.75;;
5555;SDS011;2801;50.972;7.856;2023-11-19T05:58:48;15.15;;;2.63;;
5555;SDS011;2801;50.972;7.856;2023-11-19T06:01:16;10.02;;;2.63;;
5555;SDS011;2801;50.972;7.856;2023-11-19T06:03:44;10.02;;;2.90;;
5555;SDS011;2801;50.972;7.856;2023-11-19T06:06:18;14.77;;;2.90;;
5555;SDS011;2801;50.972;7.856;2023-11-19T06:08:47;8.52;;;2.72;;
5555;SDS011;2801;50.972;7.856;2023-11-19T06:11:14;10.05;;;2.95;;
5555;SDS011;2801;50.972;7.856;2023-11-19T06:13:46;10.23;;;2.35;;
5555;SDS011;2801;50.972;7.856;2023-11-19T06:16:18;13.07;;;2.60;;
5555;SDS011;2801;50.972;7.856;2023-11-19T06:18:45;12.35;;;2.17;;
5555;SDS011;2801;50.972;7.856;2023-11-19T06:21:12;11.20;;;2.50;;
5555;SDS011;2801;50.972;7.856;2023-11-19T06:23:46;10.70;;;2.38;;
5555;SDS011;2801;50.972;7.856;2023-11-19T06:26:13;17.80;;;2.30;;
5555;SDS011;2801;50.972;7.856;2023-11-19T06:28:41;18.90;;;2.95;;
5555;SDS011;2801;50.972;7.856;2023-11-19T06:31:10;16.38;;;2.80;;
5555;SDS011;2801;50.972;7.856;2023-11-19T06:33:42;19.25;;;2.88;;
5555;SDS011;2801;50.972;7.856;2023-11-19T06:36:10;13.88;;;2.70;;
5555;SDS011;2801;50.972;7.856;2023-11-19T06:38:37;11.95;;;2.08;;
5555;SDS011;2801;50.972;7.856;2023-11-19T06:41:06;15.75;;;2.28;;
5555;SDS011;2801;50.972;7.856;2023-11-19T06:43:36;12.65;;;2.50;;
5555;SDS011;2801;50.972;7.856;2023-11-19T06:46:14;14.75;;;2.67;;
5555;SDS011;2801;50.972;7.856;2023-11-19T06:48:43;16.45;;;2.55;;
5555;SDS011;2801;50.972;7.856;2023-11-19T06:51:11;19.27;;;2.60;;
5555;SDS011;2801;50.972;7.856;2023-11-19T06:53:39;19.92;;;2.97;;
5555;SDS011;2801;50.972;7.856;2023-11-19T06:56:28;14.48;;;2.90;;
5555;SDS011;2801;50.972;7.856;2023-11-19T06:58:54;12.95;;;2.10;;
5555;SDS011;2801;50.972;7.856;2023-11-19T07:01:21;20.38;;;2.95;;
5555;SDS011;2801;50.972;7.856;2023-11-19T07:03:48;17.05;;;2.50;;
5555;SDS011;2801;50.972;7.856;2023-11-19T07:06:16;10.75;;;2.55;;
5555;SDS011;2801;50.972;7.856;2023-11-19T07:08:43;12.55;;;2.55;;
5555;SDS011;2801;50.972;7.856;2023-11-19T07:11:13;12.98;;;2.78;;
5555;SDS011;2801;50.972;7.856;2023-11-19T07:13:42;14.68;;;2.80;;
5555;SDS011;2801;50.972;7.856;2023-11-19T07:16:09;17.15;;;3.28;;
5555;SDS011;2801;50.972;7.856;2023-11-19T07:18:37;16.70;;;2.35;;
5555;SDS011;2801;50.972;7.856;2023-11-19T07:21:04;22.15;;;3.53;;
5555;SDS011;2801;50.972;7.856;2023-11-19T07:23:32;20.25;;;2.60;;
5555;SDS011;2801;50.972;7.856;2023-11-19T07:26:00;15.68;;;2.92;;
5555;SDS011;2801;50.972;7.856;2023-11-19T07:28:28;15.35;;;2.58;;
5555;SDS011;2801;50.972;7.856;2023-11-19T07:30:55;11.02;;;2.58;;
5555;SDS011;2801;50.972;7.856;2023-11-19T07:33:22;13.65;;;2.60;;
5555;SDS011;2801;50.972;7.856;2023-11-19T07:35:50;17.60;;;3.17;;
5555;SDS011;2801;50.972;7.856;2023-11-19T07:38:18;15.73;;;2.75;;
5555;SDS011;2801;50.972;7.856;2023-11-19T07:40:45;16.05;;;2.47;;
5555;SDS011;2801;50.972;7.856;2023-11-19T07:43:17;19.27;;;2.90;;
5555;SDS011;2801;50.972;7.856;2023-11-19T07:45:44;15.18;;;2.75;;
5555;SDS011;2801;50.972;7.856;2023-11-19T07:48:12;14.38;;;3.13;;
5555;SDS011;2801;50.972;7.856;2023-11-19T07:50:39;17.50;;;2.55;;
5555;SDS011;2801;50.972;7.856;2023-11-19T07:53:10;19.13;;;3.05;;
5555;SDS011;2801;50.972;7.856;2023-11-19T07:55:39;15.43;;;3.08;;
5555;SDS011;2801;50.972;7.856;2023-11-19T07:58:08;19.13;;;2.78;;
5555;SDS011;2801;50.972;7.856;2023-11-19T08:00:36;15.73;;;3.45;;
5555;SDS011;2801;50.972;7.856;2023-11-19T08:03:04;14.35;;;2.90;;
5555;SDS011;2801;50.972;7.856;2023-11-19T08:05:32;15.32;;;2.38;;
5555;SDS011;2801;50.972;7.856;2023-11-19T08:07:59;17.55;;;3.97;;
5555;SDS011;2801;50.972;7.856;2023-11-19T08:10:26;13.88;;;2.42;;
5555;SDS011;2801;50.972;7.856;2023-11-19T08:12:53;13.95;;;2.67;;
5555;SDS011;2801;50.972;7.856;2023-11-19T08:15:20;14.45;;;2.97;;
5555;SDS011;2801;50.972;7.856;2023-11-19T08:17:50;11.48;;;2.97;;
5555;SDS011;2801;50.972;7.856;2023-11-19T08:20:17;17.73;;;3.42;;
5555;SDS011;2801;50.972;7.856;2023-11-19T08:22:45;17.13;;;2.95;;
5555;SDS011;2801;50.972;7.856;2023-11-19T08:25:12;13.88;;;2.80;;
5555;SDS011;2801;50.972;7.856;2023-11-19T08:27:39;12.73;;;2.63;;
5555;SDS011;2801;50.972;7.856;2023-11-19T08:30:06;17.50;;;2.60;;
5555;SDS011;2801;50.972;7.856;2023-11-19T08:32:34;15.45;;;2.72;;
5555;SDS011;2801;50.972;7.856;2023-11-19T08:35:02;12.43;;;2.70;;
5555;SDS011;2801;50.972;7.856;2023-11-19T08:37:30;12.63;;;2.75;;
5555;SDS011;2801;50.972;7.856;2023-11-19T08:39:57;15.50;;;2.78;;
5555;SDS011;2801;50.972;7.856;2023-11-19T08:42:25;16.08;;;2.80;;
5555;SDS011;2801;50.972;7.856;2023-11-19T08:44:52;14.77;;;2.85;;
5555;SDS011;2801;50.972;7.856;2023-11-19T08:47:21;13.38;;;2.35;;
5555;SDS011;2801;50.972;7.856;2023-11-19T08:49:52;15.32;;;2.78;;
5555;SDS011;2801;50.972;7.856;2023-11-19T08:52:24;16.73;;;3.10;;
5555;SDS011;2801;50.972;7.856;2023-11-19T08:54:51;18.60;;;2.60;;
5555;SDS011;2801;50.972;7.856;2023-11-19T08:57:19;17.30;;;2.90;;
5555;SDS011;2801;50.972;7.856;2023-11-19T08:59:49;18.17;;;2.83;;
5555;SDS011;2801;50.972;7.856;2023-11-19T09:02:16;12.50;;;2.40;;
5555;SDS011;2801;50.972;7.856;2023-11-19T09:04:45;12.23;;;2.75;;
5555;SDS011;2801;50.972;7.856;2023-11-19T09:07:12;16.35;;;2.60;;
5555;SDS011;2801;50.972;7.856;2023-11-19T09:09:39;17.08;;;2.80;;
5555;SDS011;2801;50.972;7.856;2023-11-19T09:12:06;14.05;;;2.50;;
5555;SDS011;2801;50.972;7.856;2023-11-19T09:14:34;10.55;;;2.50;;
5555;SDS011;2801;50.972;7.856;2023-11-19T09:17:01;12.15;;;3.50;;
5555;SDS011;2801;50.972;7.856;2023-11-19T09:19:31;12.98;;;2.85;;
5555;SDS011;2801;50.972;7.856;2023-11-19T09:21:59;15.55;;;2.90;;
5555;SDS011;2801;50.972;7.856;2023-11-19T09:24:26;17.52;;;3.13;;
5555;SDS011;2801;50.972;7.856;2023-11-19T09:26:54;11.35;;;2.60;;
5555;SDS011;2801;50.972;7.856;2023-11-19T09:29:23;12.82;;;2.72;;
5555;SDS011;2801;50.972;7.856;2023-11-19T09:31:50;13.02;;;2.47;;
5555;SDS011;2801;50.972;7.856;2023-11-19T09:34:17;11.80;;;2.58;;
5555;SDS011;2801;50.972;7.856;2023-11-19T09:36:44;16.00;;;2.83;;
5555;SDS011;2801;50.972;7.856;2023-11-19T09:39:13;19.33;;;2.83;;
5555;SDS011;2801;50.972;7.856;2023-11-19T09:41:44;17.75;;;3.10;;
5555;SDS011;2801;50.972;7.856;2023-11-19T09:44:12;11.18;;;2.20;;
5555;SDS011;2801;50.972;7.856;2023-11-19T09:46:41;13.50;;;2.60;;
5555;SDS011;2801;50.972;7.856;2023-11-19T09:49:08;13.52;;;2.15;;
5555;SDS011;2801;50.972;7.856;2023-11-19T09:51:36;18.70;;;3.22;;
5555;SDS011;2801;50.972;7.856;2023-11-19T09:54:04;16.65;;;2.47;;
5555;SDS011;2801;50.972;7.856;2023-11-19T09:56:31;12.88;;;2.30;;
5555;SDS011;2801;50.972;7.856;2023-11-19T09:58:59;16.45;;;2.85;;
5555;SDS011;2801;50.972;7.856;2023-11-19T10:01:28;10.45;;;2.28;;
5555;SDS011;2801;50.972;7.856;2023-11-19T10:03:58;14.68;;;2.58;;
5555;SDS011;2801;50.972;7.856;2023-11-19T10:06:27;12.07;;;2.35;;
5555;SDS011;2801;50.972;7.856;2023-11-19T10:08:55;16.13;;;2.40;;
5555;SDS011;2801;50.972;7.856;2023-11-19T10:11:23;13.48;;;2.65;;
5555;SDS011;2801;50.972;7.856;2023-11-19T10:13:52;11.85;;;2.50;;
5555;SDS011;2801;50.972;7.856;2023-11-19T10:16:20;9.73;;;2.28;;
5555;SDS011;2801;50.972;7.856;2023-11-19T10:18:55;13.65;;;2.38;;
5555;SDS011;2801;50.972;7.856;2023-11-19T10:21:23;14.52;;;2.78;;
5555;SDS011;2801;50.972;7.856;2023-11-19T10:23:57;11.98;;;2.38;;
5555;SDS011;2801;50.972;7.856;2023-11-19T10:26:26;15.40;;;2.47;;
5555;SDS011;2801;50.972;7.856;2023-11-19T10:28:55;18.27;;;2.97;;
5555;SDS011;2801;50.972;7.856;2023-11-19T10:31:23;17.70;;;2.80;;
5555;SDS011;2801;50.972;7.856;2023-11-19T10:33:52;15.90;;;2.45;;
5555;SDS011;2801;50.972;7.856;2023-11-19T10:36:20;15.85;;;2.90;;
5555;SDS011;2801;50.972;7.856;2023-11-19T10:38:53;14.55;;;2.58;;
5555;SDS011;2801;50.972;7.856;2023-11-19T10:41:28;19.85;;;3.17;;
5555;SDS011;2801;50.972;7.856;2023-11-19T10:43:59;15.90;;;2.78;;
5555;SDS011;2801;50.972;7.856;2023-11-19T10:46:36;19.92;;;2.67;;
5555;SDS011;2801;50.972;7.856;2023-11-19T10:49:07;13.82;;;2.83;;
5555;SDS011;2801;50.972;7.856;2023-11-19T10:51:35;17.77;;;2.58;;
5555;SDS011;2801;50.972;7.856;2023-11-19T10:54:03;12.25;;;2.33;;
5555;SDS011;2801;50.972;7.856;2023-11-19T10:56:32;17.83;;;2.92;;
5555;SDS011;2801;50.972;7.856;2023-11-19T10:59:01;18.88;;;3.42;;
5555;SDS011;2801;50.972;7.856;2023-11-19T11:01:47;17.20;;;2.60;;
5555;SDS011;2801;50.972;7.856;2023-11-19T11:04:19;18.98;;;2.60;;
5555;SDS011;2801;50.972;7.856;2023-11-19T11:06:54;14.13;;;2.53;;
5555;SDS011;2801;50.972;7.856;2023-11-19T11:09:22;11.85;;;2.40;;
5555;SDS011;2801;50.972;7.856;2023-11-19T11:11:50;13.60;;;2.67;;
5555;SDS011;2801;50.972;7.856;2023-11-19T11:14:19;14.63;;;3.38;;
5555;SDS011;2801;50.972;7.856;2023-11-19T11:16:51;19.40;;;2.50;;
5555;SDS011;2801;50.972;7.856;2023-11-19T11:19:20;14.90;;;2.35;;
5555;SDS011;2801;50.972;7.856;2023-11-19T11:21:52;13.13;;;2.38;;
5555;SDS011;2801;50.972;7.856;2023-11-19T11:35:55;21.55;;;3.00;;
5555;SDS011;2801;50.972;7.856;2023-11-19T11:38:34;13.85;;;2.28;;
5555;SDS011;2801;50.972;7.856;2023-11-19T11:41:22;17.30;;;2.80;;
5555;SDS011;2801;50.972;7.856;2023-11-19T11:43:55;11.80;;;2.20;;
5555;SDS011;2801;50.972;7.856;2023-11-19T11:49:00;17.50;;;2.80;;
5555;SDS011;2801;50.972;7.856;2023-11-19T11:52:16;17.30;;;2.78;;
5555;SDS011;2801;50.972;7.856;2023-11-19T11:59:50;16.58;;;2.50;;
5555;SDS011;2801;50.972;7.856;2023-11-19T12:02:18;14.35;;;2.63;;
5555;SDS011;2801;50.972;7.856;2023-11-19T12:04:51;11.10;;;2.30;;
5555;SDS011;2801;50.972;7.856;2023-11-19T12:07:23;16.35;;;3.10;;
5555;SDS011;2801;50.972;7.856;2023-11-19T12:10:07;12.85;;;2.75;;
5555;SDS011;2801;50.972;7.856;2023-11-19T12:12:58;9.00;;;1.92;;
5555;SDS011;2801;50.972;7.856;2023-11-19T12:15:27;14.00;;;3.10;;
5555;SDS011;2801;50.972;7.856;2023-11-19T12:17:55;14.38;;;2.42;;
5555;SDS011;2801;50.972;7.856;2023-11-19T12:20:23;11.70;;;2.50;;
5555;SDS011;2801;50.972;7.856;2023-11-19T12:22:55;15.05;;;2.60;;
5555;SDS011;2801;50.972;7.856;2023-11-19T12:25:22;14.57;;;2.35;;
5555;SDS011;2801;50.972;7.856;2023-11-19T12:27:50;12.55;;;2.50;;
5555;SDS011;2801;50.972;7.856;2023-11-19T12:30:25;13.35;;;3.28;;
5555;SDS011;2801;50.972;7.856;2023-11-19T12:32:53;12.57;;;2.10;;
5555;SDS011;2801;50.972;7.856;2023-11-19T12:35:22;15.88;;;2.80;;
5555;SDS011;2801;50.972;7.856;2023-11-19T12:37:52;16.27;;;2.70;;
5555;SDS011;2801;50.972;7.856;2023-11-19T12:40:20;21.10;;;3.13;;
5555;SDS011;2801;50.972;7.856;2023-11-19T12:42:52;21.55;;;3.25;;
5555;SDS011;2801;50.972;7.856;2023-11-19T12:45:21;19.10;;;2.78;;
5555;SDS011;2801;50.972;7.856;2023-11-19T12:48:03;8.38;;;1.70;;
5555;SDS011;2801;50.972;7.856;2023-11-19T12:53:22;17.65;;;3.35;;
5555;SDS011;2801;50.972;7.856;2023-11-19T12:55:51;17.60;;;3.22;;
5555;SDS011;2801;50.972;7.856;2023-11-19T12:58:29;12.30;;;2.63;;
5555;SDS011;2801;50.972;7.856;2023-11-19T13:01:03;20.17;;;2.67;;
5555;SDS011;2801;50.972;7.856;2023-11-19T13:03:33;13.27;;;2.33;;
5555;SDS011;2801;50.972;7.856;2023-11-19T13:06:06;14.52;;;2.33;;
5555;SDS011;2801;50.972;7.856;2023-11-19T13:11:12;10.65;;;2.35;;
5555;SDS011;2801;50.972;7.856;2023-11-19T13:13:56;13.25;;;2.38;;
5555;SDS011;2801;50.972;7.856;2023-11-19T13:16:36;11.45;;;1.88;;
5555;SDS011;2801;50.972;7.856;2023-11-19T13:19:09;12.45;;;2.05;;
5555;SDS011;2801;50.972;7.856;2023-11-19T13:21:37;13.52;;;2.03;;
5555;SDS011;2801;50.972;7.856;2023-11-19T13:24:06;9.52;;;1.50;;
5555;SDS011;2801;50.972;7.856;2023-11-19T13:26:35;12.90;;;1.90;;
5555;SDS011;2801;50.972;7.856;2023-11-19T13:29:02;11.90;;;2.15;;
5555;SDS011;2801;50.972;7.856;2023-11-19T13:31:30;11.57;;;2.00;;
5555;SDS011;2801;50.972;7.856;2023-11-19T13:34:00;17.65;;;2.08;;
5555;SDS011;2801;50.972;7.856;2023-11-19T13:36:27;13.80;;;2.35;;
5555;SDS011;2801;50.972;7.856;2023-11-19T13:38:55;11.30;;;2.20;;
5555;SDS011;2801;50.972;7.856;2023-11-19T13:41:26;8.82;;;2.15;;
5555;SDS011;2801;50.972;7.856;2023-11-19T13:43:53;14.27;;;2.20;;
5555;SDS011;2801;50.972;7.856;2023-11-19T13:46:21;10.40;;;2.00;;
5555;SDS011;2801;50.972;7.856;2023-11-19T13:48:48;5.57;;;1.83;;
5555;SDS011;2801;50.972;7.856;2023-11-19T13:51:19;13.73;;;2.20;;
5555;SDS011;2801;50.972;7.856;2023-11-19T13:53:46;9.07;;;2.05;;
5555;SDS011;2801;50.972;7.856;2023-11-19T13:56:16;12.85;;;2.63;;
5555;SDS011;2801;50.972;7.856;2023-11-19T13:58:43;10.68;;;2.10;;
5555;SDS011;2801;50.972;7.856;2023-11-19T14:01:11;11.20;;;3.22;;
5555;SDS011;2801;50.972;7.856;2023-11-19T14:03:40;9.95;;;1.75;;
5555;SDS011;2801;50.972;7.856;2023-11-19T14:06:08;9.57;;;2.40;;
5555;SDS011;2801;50.972;7.856;2023-11-19T14:08:36;12.70;;;2.25;;
5555;SDS011;2801;50.972;7.856;2023-11-19T14:11:04;10.85;;;2.13;;
5555;SDS011;2801;50.972;7.856;2023-11-19T14:13:33;12.43;;;1.90;;
5555;SDS011;2801;50.972;7.856;2023-11-19T14:16:01;8.50;;;2.45;;
5555;SDS011;2801;50.972;7.856;2023-11-19T14:18:33;16.50;;;2.83;;
5555;SDS011;2801;50.972;7.856;2023-11-19T14:21:01;6.60;;;2.20;;
5555;SDS011;2801;50.972;7.856;2023-11-19T14:23:29;11.27;;;1.90;;
5555;SDS011;2801;50.972;7.856;2023-11-19T14:25:56;9.75;;;1.80;;
5555;SDS011;2801;50.972;7.856;2023-11-19T14:28:25;13.48;;;2.50;;
5555;SDS011;2801;50.972;7.856;2023-11-19T14:30:53;7.75;;;1.80;;
5555;SDS011;2801;50.972;7.856;2023-11-19T14:33:24;13.90;;;2.33;;
5555;SDS011;2801;50.972;7.856;2023-11-19T14:35:51;9.32;;;1.90;;
5555;SDS011;2801;50.972;7.856;2023-11-19T14:38:19;14.85;;;2.20;;
5555;SDS011;2801;50.972;7.856;2023-11-19T14:40:47;13.23;;;2.70;;
5555;SDS011;2801;50.972;7.856;2023-11-19T14:43:14;8.98;;;2.03;;
5555;SDS011;2801;50.972;7.856;2023-11-19T14:45:42;14.60;;;3.10;;
5555;SDS011;2801;50.972;7.856;2023-11-19T14:48:15;14.40;;;2.65;;
5555;SDS011;2801;50.972;7.856;2023-11-19T14:50:46;15.02;;;2.90;;
5555;SDS011;2801;50.972;7.856;2023-11-19T14:53:13;9.38;;;2.22;;
5555;SDS011;2801;50.972;7.856;2023-11-19T14:55:41;16.25;;;2.58;;
5555;SDS011;2801;50.972;7.856;2023-11-19T14:58:09;13.13;;;2.50;;
5555;SDS011;2801;50.972;7.856;2023-11-19T15:00:41;12.18;;;2.03;;
5555;SDS011;2801;50.972;7.856;2023-11-19T15:03:08;15.38;;;2.63;;
5555;SDS011;2801;50.972;7.856;2023-11-19T15:05:36;18.33;;;2.92;;
5555;SDS011;2801;50.972;7.856;2023-11-19T15:08:03;15.50;;;2.20;;
5555;SDS011;2801;50.972;7.856;2023-11-19T15:10:30;10.93;;;2.28;;
5555;SDS011;2801;50.972;7.856;2023-11-19T15:12:58;15.85;;;2.55;;
5555;SDS011;2801;50.972;7.856;2023-11-19T15:15:25;17.25;;;2.67;;
5555;SDS011;2801;50.972;7.856;2023-11-19T15:17:55;12.00;;;2.63;;
5555;SDS011;2801;50.972;7.856;2023-11-19T15:20:22;17.80;;;2.95;;
5555;SDS011;2801;50.972;7.856;2023-11-19T15:22:50;12.60;;;2.05;;
5555;SDS011;2801;50.972;7.856;2023-11-19T15:25:18;15.02;;;2.75;;
5555;SDS011;2801;50.972;7.856;2023-11-19T15:27:45;14.88;;;2.70;;
5555;SDS011;2801;50.972;7.856;2023-11-19T15:30:13;14.05;;;3.03;;
5555;SDS011;2801;50.972;7.856;2023-11-19T15:32:42;13.80;;;2.78;;
5555;SDS011;2801;50.972;7.856;2023-11-19T15:35:11;16.08;;;2.70;;
5555;SDS011;2801;50.972;7.856;2023-11-19T15:37:40;13.68;;;2.75;;
5555;SDS011;2801;50.972;7.856;2023-11-19T15:40:10;13.93;;;2.92;;
5555;SDS011;2801;50.972;7.856;2023-11-19T15:42:39;18.67;;;3.45;;
5555;SDS011;2801;50.972;7.856;2023-11-19T15:45:10;16.50;;;3.20;;
5555;SDS011;2801;50.972;7.856;2023-11-19T15:47:38;19.42;;;4.28;;